Time;durP1;ratioP1;P1;durP2;ratioP2;P2;SDS_P1;SDS_P2;PMS_P1;PMS_P2;Temp;Humidity;BMP_temperature;BMP_pressure;BME280_temperature;BME280_humidity;BME280_pressure;Samples;Min_cycle;Max_cycle;Signal;HPM_P1;HPM_P2
2023/09/20 00:02:22;;;;;;;5.40;1.20;;;17.30;80.60;;;;;;4990810;28;20030;-73
2023/09/20 00:04:47;;;;;;;3.60;1.05;;;17.30;80.90;;;;;;4991204;28;20375;-73
2023/09/20 00:07:13;;;;;;;5.15;1.13;;;17.30;81.00;;;;;;4991380;28;20388;-72
2023/09/20 00:09:39;;;;;;;2.50;0.85;;;17.30;80.70;;;;;;4978387;28;20027;-72
2023/09/20 00:12:05;;;;;;;4.32;1.23;;;17.30;80.80;;;;;;4993095;28;20037;-73
2023/09/20 00:14:31;;;;;;;3.67;0.90;;;17.40;80.80;;;;;;4989219;28;20471;-72
2023/09/20 00:16:57;;;;;;;4.32;0.90;;;17.30;80.90;;;;;;4991204;28;20034;-72
2023/09/20 00:19:22;;;;;;;7.15;0.90;;;17.40;80.70;;;;;;4990585;28;20019;-72
2023/09/20 00:21:49;;;;;;;3.25;0.75;;;17.30;80.80;;;;;;4998359;28;20033;-73
2023/09/20 00:24:14;;;;;;;5.63;1.00;;;17.40;80.80;;;;;;4997696;28;20096;-72
2023/09/20 00:26:39;;;;;;;4.97;1.02;;;17.40;80.70;;;;;;4993541;28;20038;-73
2023/09/20 00:29:05;;;;;;;4.05;1.13;;;17.40;80.70;;;;;;4990286;28;20034;-72
2023/09/20 00:31:32;;;;;;;4.18;1.00;;;17.40;80.70;;;;;;4985088;28;21032;-72
2023/09/20 00:33:58;;;;;;;6.82;1.20;;;17.30;80.70;;;;;;4989566;28;20427;-73
2023/09/20 00:36:24;;;;;;;6.20;0.98;;;17.40;80.80;;;;;;4986528;28;20510;-73
2023/09/20 00:38:50;;;;;;;2.78;1.00;;;17.40;80.80;;;;;;4992856;28;20031;-73
2023/09/20 00:41:15;;;;;;;3.97;0.80;;;17.40;81.00;;;;;;4989610;28;20038;-72
2023/09/20 00:43:41;;;;;;;1.92;0.70;;;17.40;81.10;;;;;;4994297;28;20046;-72
2023/09/20 00:46:09;;;;;;;5.32;1.10;;;17.40;81.10;;;;;;4991535;28;20418;-73
2023/09/20 00:48:38;;;;;;;4.90;1.02;;;17.40;81.00;;;;;;4984892;28;20026;-72
2023/09/20 00:51:05;;;;;;;4.50;1.10;;;17.30;81.10;;;;;;4993341;28;20034;-72
2023/09/20 00:53:31;;;;;;;3.88;1.10;;;17.30;81.20;;;;;;4994254;28;20057;-72
2023/09/20 00:55:58;;;;;;;2.28;0.85;;;17.30;81.50;;;;;;4988616;28;20045;-72
2023/09/20 00:58:23;;;;;;;3.70;1.10;;;17.30;81.10;;;;;;4989182;28;20475;-72
2023/09/20 01:00:53;;;;;;;4.03;0.88;;;17.30;81.50;;;;;;4983293;28;20057;-73
2023/09/20 01:03:19;;;;;;;5.78;1.20;;;17.30;81.20;;;;;;4957673;28;20503;-73
2023/09/20 01:05:47;;;;;;;2.22;0.90;;;17.30;81.40;;;;;;4994407;28;20042;-73
2023/09/20 01:08:13;;;;;;;3.75;0.90;;;17.30;81.50;;;;;;4993044;28;20039;-72
2023/09/20 01:10:38;;;;;;;3.47;1.13;;;17.30;81.50;;;;;;4995496;28;20088;-72
2023/09/20 01:13:05;;;;;;;3.13;1.02;;;17.20;81.40;;;;;;4961974;28;20127;-73
2023/09/20 01:15:36;;;;;;;3.33;1.02;;;17.20;81.40;;;;;;4973019;28;20077;-73
2023/09/20 01:18:04;;;;;;;5.22;0.95;;;17.30;81.50;;;;;;4984264;28;20031;-73
2023/09/20 01:20:31;;;;;;;3.83;1.13;;;17.20;81.50;;;;;;4991690;28;20469;-72
2023/09/20 01:22:58;;;;;;;3.03;1.00;;;17.30;81.20;;;;;;4989902;28;20030;-72
2023/09/20 01:25:42;;;;;;;9.65;1.10;;;17.20;81.30;;;;;;4981052;28;20092;-72
2023/09/20 01:28:09;;;;;;;3.50;1.27;;;17.30;81.00;;;;;;4985264;28;20034;-73
2023/09/20 01:30:40;;;;;;;4.85;1.02;;;17.20;81.10;;;;;;4983005;28;20065;-73
2023/09/20 01:33:07;;;;;;;2.67;0.90;;;17.20;81.10;;;;;;4963935;28;20034;-72
2023/09/20 01:35:34;;;;;;;2.10;1.00;;;17.30;81.20;;;;;;4978321;28;20821;-72
2023/09/20 01:38:00;;;;;;;8.02;1.10;;;17.30;81.10;;;;;;4993929;28;20038;-72
2023/09/20 01:40:26;;;;;;;3.03;0.95;;;17.20;81.20;;;;;;4986541;28;20100;-73
2023/09/20 01:42:58;;;;;;;5.72;1.40;;;17.20;81.10;;;;;;4990464;28;20463;-72
2023/09/20 01:45:23;;;;;;;8.13;1.33;;;17.30;81.20;;;;;;4986479;28;20092;-73
2023/09/20 01:47:51;;;;;;;4.68;1.10;;;17.20;81.30;;;;;;4987376;28;20454;-73
2023/09/20 01:50:25;;;;;;;5.32;1.30;;;17.20;81.50;;;;;;4979963;28;20031;-73
2023/09/20 01:52:55;;;;;;;6.03;1.00;;;17.20;81.30;;;;;;4993075;28;20069;-72
2023/09/20 01:55:22;;;;;;;3.47;0.93;;;17.20;81.30;;;;;;4988724;28;20030;-72
2023/09/20 01:57:49;;;;;;;4.95;1.00;;;17.20;81.30;;;;;;4970428;28;20034;-73
2023/09/20 02:00:22;;;;;;;5.22;1.45;;;17.20;81.50;;;;;;4993799;28;20041;-73
2023/09/20 02:02:55;;;;;;;4.57;1.30;;;17.20;81.60;;;;;;4995689;28;20030;-74
2023/09/20 02:05:23;;;;;;;6.07;1.30;;;17.20;81.50;;;;;;4999096;28;20125;-73
2023/09/20 02:07:50;;;;;;;3.60;1.40;;;17.20;81.60;;;;;;4985141;28;20026;-73
2023/09/20 02:10:17;;;;;;;3.72;1.23;;;17.20;81.50;;;;;;4987487;28;20530;-71
2023/09/20 02:12:51;;;;;;;4.13;1.20;;;17.20;81.20;;;;;;5002539;28;20092;-73
2023/09/20 02:15:20;;;;;;;5.63;1.42;;;17.20;81.30;;;;;;4985933;28;20035;-73
2023/09/20 02:17:46;;;;;;;3.17;1.02;;;17.20;81.50;;;;;;4970218;28;20064;-72
2023/09/20 02:20:12;;;;;;;2.90;1.00;;;17.20;81.50;;;;;;4986066;28;20030;-72
2023/09/20 02:22:39;;;;;;;3.53;1.20;;;17.30;81.70;;;;;;4990110;28;20030;-72
2023/09/20 02:25:12;;;;;;;5.38;1.20;;;17.20;81.70;;;;;;4989807;28;20050;-73
2023/09/20 02:27:43;;;;;;;2.97;0.90;;;17.20;81.60;;;;;;4988564;28;20034;-73
2023/09/20 02:30:19;;;;;;;7.40;1.10;;;17.20;81.90;;;;;;4973585;28;20112;-73
2023/09/20 02:32:46;;;;;;;4.30;1.33;;;17.20;81.90;;;;;;4982877;28;20031;-72
2023/09/20 02:35:12;;;;;;;2.63;1.20;;;17.20;81.80;;;;;;4971864;28;20026;-72
2023/09/20 02:37:40;;;;;;;7.00;1.63;;;17.30;81.80;;;;;;4989460;28;20045;-73
2023/09/20 02:40:19;;;;;;;7.47;1.15;;;17.20;82.10;;;;;;4985914;28;20464;-73
2023/09/20 02:42:59;;;;;;;5.43;1.23;;;17.20;82.40;;;;;;4988293;28;20023;-72
2023/09/20 02:45:27;;;;;;;1.50;0.80;;;17.10;82.60;;;;;;4989483;28;20030;-73
2023/09/20 02:47:54;;;;;;;5.28;1.55;;;17.20;82.60;;;;;;4985287;28;20536;-73
2023/09/20 02:50:23;;;;;;;3.30;1.30;;;17.20;82.50;;;;;;4991273;28;20058;-72
2023/09/20 02:52:49;;;;;;;2.85;1.10;;;17.20;82.70;;;;;;4991138;28;20026;-72
2023/09/20 02:55:17;;;;;;;5.55;1.38;;;17.10;82.90;;;;;;4990008;28;20034;-72
2023/09/20 02:57:46;;;;;;;4.78;1.30;;;17.20;82.60;;;;;;4987584;28;20034;-72
2023/09/20 03:00:17;;;;;;;3.45;1.27;;;17.20;82.70;;;;;;4979939;28;20030;-72
2023/09/20 03:02:46;;;;;;;;;;;17.20;82.60;;;;;;4983187;28;20035;-72
2023/09/20 03:05:15;;;;;;;3.42;1.40;;;17.20;82.50;;;;;;4993910;28;19960;-74
2023/09/20 03:07:42;;;;;;;8.60;1.20;;;17.30;82.70;;;;;;4986482;28;20057;-72
2023/09/20 03:10:12;;;;;;;4.63;1.45;;;17.20;82.60;;;;;;4989499;28;20462;-74
2023/09/20 03:12:44;;;;;;;3.33;0.90;;;17.30;82.40;;;;;;4987028;28;20026;-73
2023/09/20 03:15:17;;;;;;;6.25;1.48;;;17.30;82.60;;;;;;4981858;28;20108;-71
2023/09/20 03:17:47;;;;;;;6.63;1.27;;;17.30;82.50;;;;;;4980688;28;20082;-73
2023/09/20 03:20:16;;;;;;;4.15;1.13;;;17.30;82.60;;;;;;4984555;28;20482;-73
2023/09/20 03:22:42;;;;;;;7.60;1.58;;;17.30;82.70;;;;;;4993758;28;20027;-72
2023/09/20 03:25:13;;;;;;;4.20;1.50;;;17.30;82.60;;;;;;4993921;28;20057;-73
2023/09/20 03:27:40;;;;;;;;;;;17.30;82.60;;;;;;4982947;28;20039;-73
2023/09/20 03:30:08;;;;;;;3.45;1.30;;;17.30;82.60;;;;;;4978729;28;20418;-72
2023/09/20 03:32:33;;;;;;;7.90;1.60;;;17.30;82.50;;;;;;4979857;28;20038;-73
2023/09/20 03:34:59;;;;;;;2.38;1.05;;;17.30;82.70;;;;;;4987169;28;20089;-73
2023/09/20 03:37:25;;;;;;;3.42;1.10;;;17.30;82.80;;;;;;4983591;28;20031;-72
2023/09/20 03:39:51;;;;;;;4.05;1.70;;;17.30;82.60;;;;;;4985277;28;20023;-72
2023/09/20 03:42:17;;;;;;;5.68;1.25;;;17.30;82.40;;;;;;4987439;28;20057;-72
2023/09/20 03:44:42;;;;;;;4.57;1.20;;;17.20;82.60;;;;;;4983252;28;20129;-71
2023/09/20 03:47:08;;;;;;;6.20;1.20;;;17.20;82.80;;;;;;4970032;28;20156;-73
2023/09/20 03:49:33;;;;;;;5.07;1.40;;;17.30;82.40;;;;;;4967303;28;20458;-73
2023/09/20 03:52:00;;;;;;;4.80;1.30;;;17.30;82.60;;;;;;4985512;28;20031;-72
2023/09/20 03:54:25;;;;;;;6.10;1.75;;;17.20;82.80;;;;;;4989949;28;20030;-72
2023/09/20 03:56:51;;;;;;;5.68;1.48;;;17.20;82.60;;;;;;4987341;28;20380;-73
2023/09/20 03:59:17;;;;;;;7.95;1.63;;;17.30;82.40;;;;;;4974336;28;20026;-73
2023/09/20 04:01:43;;;;;;;5.25;1.10;;;17.30;82.40;;;;;;4982826;28;20038;-73
2023/09/20 04:04:08;;;;;;;3.83;1.40;;;17.20;82.70;;;;;;4986447;28;20038;-72
2023/09/20 04:06:34;;;;;;;7.15;1.23;;;17.30;82.70;;;;;;4992373;28;20034;-73
2023/09/20 04:09:09;;;;;;;5.75;1.40;;;17.30;82.60;;;;;;4995262;28;20061;-74
2023/09/20 04:11:38;;;;;;;5.25;1.60;;;17.30;82.60;;;;;;4987954;28;20031;-73
2023/09/20 04:14:06;;;;;;;4.15;1.23;;;17.20;82.60;;;;;;4991315;28;20542;-73
2023/09/20 04:16:31;;;;;;;3.90;1.50;;;17.20;82.70;;;;;;4983013;28;20077;-72
2023/09/20 04:18:57;;;;;;;4.97;1.27;;;17.30;82.50;;;;;;4972461;28;20303;-72
2023/09/20 04:21:24;;;;;;;5.18;1.40;;;17.20;82.80;;;;;;4990449;28;20034;-74
2023/09/20 04:23:50;;;;;;;2.50;1.17;;;17.20;82.80;;;;;;4985722;28;20022;-72
2023/09/20 04:26:15;;;;;;;4.97;1.85;;;17.20;82.80;;;;;;4989202;28;20100;-72
2023/09/20 04:28:40;;;;;;;4.75;1.13;;;17.20;82.80;;;;;;4993409;28;20026;-67
2023/09/20 04:31:06;;;;;;;6.53;1.27;;;17.20;82.60;;;;;;4989984;28;20431;-67
2023/09/20 04:33:33;;;;;;;4.13;1.50;;;17.20;82.70;;;;;;4984072;28;20034;-67
2023/09/20 04:36:00;;;;;;;5.20;1.60;;;17.30;82.60;;;;;;4991428;28;20031;-68
2023/09/20 04:38:26;;;;;;;6.90;1.67;;;17.20;82.80;;;;;;4985459;28;20418;-69
2023/09/20 04:40:51;;;;;;;4.90;1.60;;;17.20;82.80;;;;;;4983005;28;20027;-67
2023/09/20 04:43:17;;;;;;;6.35;1.20;;;17.20;82.60;;;;;;4985739;28;20038;-68
2023/09/20 04:45:43;;;;;;;5.68;1.55;;;17.20;82.60;;;;;;4987436;28;20042;-69
2023/09/20 04:48:08;;;;;;;4.28;1.50;;;17.20;82.30;;;;;;4984278;28;20077;-68
2023/09/20 04:50:35;;;;;;;3.08;1.40;;;17.30;82.60;;;;;;4987160;28;20037;-69
2023/09/20 04:53:00;;;;;;;3.45;1.27;;;17.30;82.60;;;;;;4995560;28;20026;-68
2023/09/20 04:55:27;;;;;;;7.28;1.40;;;17.30;82.40;;;;;;5000239;28;20046;-68
2023/09/20 04:57:52;;;;;;;4.70;1.25;;;17.30;82.60;;;;;;4989836;28;20542;-69
2023/09/20 05:00:23;;;;;;;5.63;1.33;;;17.30;82.50;;;;;;4994168;28;20117;-70
2023/09/20 05:02:49;;;;;;;4.63;1.67;;;17.30;82.80;;;;;;4984553;28;20037;-68
2023/09/20 05:05:16;;;;;;;5.43;1.10;;;17.20;82.70;;;;;;4990896;28;20470;-68
2023/09/20 05:07:43;;;;;;;4.97;1.30;;;17.20;82.70;;;;;;4991518;28;20471;-68
2023/09/20 05:10:09;;;;;;;7.75;1.33;;;17.30;82.40;;;;;;4999291;28;20030;-68
2023/09/20 05:12:34;;;;;;;5.30;1.58;;;17.30;82.50;;;;;;4996595;28;20041;-67
2023/09/20 05:15:00;;;;;;;4.78;1.40;;;17.30;82.60;;;;;;4978636;28;20030;-68
2023/09/20 05:17:27;;;;;;;5.68;1.30;;;17.30;82.70;;;;;;4986800;28;20057;-68
2023/09/20 05:19:52;;;;;;;5.55;1.40;;;17.30;82.50;;;;;;4999610;28;20027;-67
2023/09/20 05:22:19;;;;;;;5.43;1.30;;;17.30;82.50;;;;;;4983001;28;20058;-69
2023/09/20 05:24:44;;;;;;;2.53;1.02;;;17.30;82.50;;;;;;4994570;28;20093;-68
2023/09/20 05:27:10;;;;;;;6.88;1.48;;;17.30;82.50;;;;;;4987413;28;20387;-68
2023/09/20 05:29:35;;;;;;;5.65;1.30;;;17.30;82.50;;;;;;4967265;28;20039;-68
2023/09/20 05:32:01;;;;;;;2.60;1.10;;;17.30;82.70;;;;;;4970391;28;20102;-69
2023/09/20 05:34:26;;;;;;;3.35;1.45;;;17.30;82.50;;;;;;4986469;28;20165;-67
2023/09/20 05:36:53;;;;;;;6.35;1.27;;;17.40;82.60;;;;;;4986335;28;20030;-67
2023/09/20 05:39:18;;;;;;;4.57;1.23;;;17.30;82.60;;;;;;4985650;28;20217;-67
2023/09/20 05:41:44;;;;;;;6.53;1.58;;;17.30;82.90;;;;;;4992035;28;21925;-68
2023/09/20 05:44:13;;;;;;;5.18;1.38;;;17.30;82.80;;;;;;4985283;28;20061;-68
2023/09/20 05:46:38;;;;;;;4.63;1.15;;;17.30;82.50;;;;;;4986390;28;20038;-70
2023/09/20 05:49:04;;;;;;;6.28;1.20;;;17.40;82.60;;;;;;4991405;28;20134;-67
2023/09/20 05:51:30;;;;;;;8.30;1.58;;;17.40;82.50;;;;;;4980294;28;20073;-68
2023/09/20 05:53:55;;;;;;;4.60;1.10;;;17.40;82.50;;;;;;4995626;28;20196;-67
2023/09/20 05:56:21;;;;;;;4.10;1.38;;;17.40;82.60;;;;;;4996893;28;20046;-68
2023/09/20 05:58:46;;;;;;;5.13;1.48;;;17.40;82.80;;;;;;4985073;28;20109;-70
2023/09/20 06:01:13;;;;;;;4.25;1.30;;;17.40;82.70;;;;;;4983867;28;20077;-67
2023/09/20 06:03:39;;;;;;;6.60;1.67;;;17.40;82.70;;;;;;4987767;28;20022;-69
2023/09/20 06:06:07;;;;;;;4.95;1.38;;;17.40;82.50;;;;;;4969399;28;20073;-67
2023/09/20 06:08:33;;;;;;;4.95;1.15;;;17.50;82.50;;;;;;4983443;28;20027;-67
2023/09/20 06:11:04;;;;;;;3.05;1.15;;;17.50;82.80;;;;;;4991832;28;20100;-68
2023/09/20 06:13:29;;;;;;;4.20;1.50;;;17.50;82.80;;;;;;4973113;28;20034;-67
2023/09/20 06:15:55;;;;;;;5.13;1.40;;;17.50;82.40;;;;;;4986158;28;20046;-67
2023/09/20 06:18:20;;;;;;;5.78;1.50;;;17.50;82.80;;;;;;4987589;28;20470;-67
2023/09/20 06:20:50;;;;;;;6.45;1.63;;;17.50;82.60;;;;;;4993783;28;20146;-67
2023/09/20 06:23:18;;;;;;;4.55;1.35;;;17.50;82.40;;;;;;4992222;28;20034;-67
2023/09/20 06:25:46;;;;;;;5.05;1.27;;;17.40;82.60;;;;;;4975672;28;20046;-67
2023/09/20 06:28:13;;;;;;;5.65;1.40;;;17.30;83.00;;;;;;4995989;28;20083;-68
2023/09/20 06:30:41;;;;;;;5.38;1.42;;;17.30;83.30;;;;;;4987617;28;20068;-67
2023/09/20 06:33:08;;;;;;;4.75;1.60;;;17.20;83.40;;;;;;4992070;28;20026;-67
2023/09/20 06:35:38;;;;;;;6.38;1.70;;;17.10;83.60;;;;;;4993028;28;20086;-69
2023/09/20 06:38:04;;;;;;;2.77;1.10;;;17.10;84.00;;;;;;4996771;28;20037;-68
2023/09/20 06:40:39;;;;;;;3.67;1.08;;;17.10;83.90;;;;;;4990338;28;20090;-69
2023/09/20 06:43:08;;;;;;;5.88;1.48;;;17.10;83.80;;;;;;4973542;28;20061;-68
2023/09/20 06:45:37;;;;;;;4.28;1.10;;;17.10;83.90;;;;;;4989230;28;20041;-69
2023/09/20 06:48:03;;;;;;;4.47;1.48;;;17.10;83.90;;;;;;4989214;28;20080;-70
2023/09/20 06:50:31;;;;;;;3.72;1.63;;;17.10;84.00;;;;;;4989980;28;20121;-68
2023/09/20 06:52:57;;;;;;;3.70;1.27;;;17.00;84.10;;;;;;4991951;28;20034;-70
2023/09/20 06:55:25;;;;;;;9.43;1.60;;;17.00;84.00;;;;;;4990028;28;20371;-69
2023/09/20 06:57:51;;;;;;;5.88;1.67;;;17.10;84.20;;;;;;4987701;28;20113;-68
2023/09/20 07:00:26;;;;;;;3.13;1.30;;;17.10;84.20;;;;;;4991595;28;20149;-68
2023/09/20 07:02:55;;;;;;;5.15;1.70;;;17.00;84.30;;;;;;4988819;28;20018;-68
2023/09/20 07:05:24;;;;;;;5.70;1.42;;;17.00;84.40;;;;;;4991885;28;20042;-68
2023/09/20 07:07:50;;;;;;;5.30;1.77;;;17.10;84.40;;;;;;4972705;28;20449;-69
2023/09/20 07:10:16;;;;;;;7.10;1.73;;;17.30;84.30;;;;;;4990039;28;20030;-69
2023/09/20 07:12:42;;;;;;;3.55;1.30;;;17.30;84.10;;;;;;4985401;28;20057;-68
2023/09/20 07:15:09;;;;;;;4.82;1.48;;;17.30;84.10;;;;;;4987648;28;20066;-68
2023/09/20 07:17:35;;;;;;;5.97;1.63;;;17.50;83.90;;;;;;4969267;28;20120;-69
2023/09/20 07:20:39;;;;;;;3.95;1.45;;;17.50;83.70;;;;;;4991486;28;20027;-67
2023/09/20 07:22:55;;;;;;;4.55;1.10;;;17.60;83.30;;;;;;4987854;28;20121;-69
2023/09/20 07:25:23;;;;;;;5.00;1.38;;;17.60;83.40;;;;;;4991026;28;20192;-67
2023/09/20 07:27:55;;;;;;;6.72;1.45;;;17.60;83.30;;;;;;4986461;28;20030;-68
2023/09/20 07:30:22;;;;;;;3.88;1.35;;;17.60;82.70;;;;;;4986757;28;20037;-68
2023/09/20 07:32:50;;;;;;;5.28;1.38;;;17.70;83.00;;;;;;4987933;28;20069;-69
2023/09/20 07:38:02;;;;;;;6.35;1.60;;;17.80;82.50;;;;;;4980374;28;20387;-68
2023/09/20 07:40:29;;;;;;;8.50;1.55;;;18.00;82.90;;;;;;4993212;28;20034;-69
2023/09/20 07:42:59;;;;;;;5.00;1.52;;;18.00;81.90;;;;;;4974776;28;20031;-68
2023/09/20 07:45:27;;;;;;;4.40;1.63;;;18.10;81.50;;;;;;4989408;28;20034;-68
2023/09/20 07:47:52;;;;;;;5.03;1.77;;;18.20;81.70;;;;;;4991298;28;20034;-68
2023/09/20 07:50:19;;;;;;;4.43;1.33;;;18.20;81.30;;;;;;4988139;28;20471;-68
2023/09/20 07:52:45;;;;;;;5.85;1.83;;;18.30;81.50;;;;;;4994857;28;20109;-68
2023/09/20 07:55:11;;;;;;;4.38;1.27;;;18.30;81.60;;;;;;4993382;28;20157;-69
2023/09/20 07:57:38;;;;;;;4.03;1.20;;;18.40;81.20;;;;;;5004909;28;20029;-68
2023/09/20 08:00:08;;;;;;;3.90;1.58;;;18.50;81.10;;;;;;4992435;28;20076;-68
2023/09/20 08:02:34;;;;;;;3.67;1.35;;;18.70;81.00;;;;;;4993218;28;20034;-68
2023/09/20 08:05:00;;;;;;;4.72;1.50;;;18.90;80.00;;;;;;4979081;28;20030;-68
2023/09/20 08:07:25;;;;;;;6.85;1.45;;;19.00;79.70;;;;;;5010625;28;20635;-67
2023/09/20 08:09:52;;;;;;;3.03;1.20;;;19.10;78.90;;;;;;5007336;28;20042;-71
2023/09/20 08:12:17;;;;;;;3.72;1.27;;;19.20;79.20;;;;;;5007674;28;20026;-69
2023/09/20 08:14:43;;;;;;;4.15;1.20;;;19.50;79.50;;;;;;4984740;28;20038;-68
2023/09/20 08:19:52;;;;;;;4.90;1.17;;;19.60;77.70;;;;;;4991272;28;20053;-69
2023/09/20 08:22:19;;;;;;;4.63;1.35;;;19.80;77.30;;;;;;4969865;28;20038;-72
2023/09/20 09:00:35;;;;;;;2.08;0.95;;;21.40;74.00;;;;;;4990337;28;20551;-68
2023/09/20 09:03:03;;;;;;;7.22;1.27;;;21.20;74.00;;;;;;4990948;28;20644;-68
2023/09/20 09:05:30;;;;;;;4.00;1.48;;;21.00;74.30;;;;;;4994028;28;20046;-69
2023/09/20 09:07:57;;;;;;;4.10;1.10;;;20.90;73.80;;;;;;4989687;28;20458;-67
2023/09/20 09:10:22;;;;;;;3.22;1.27;;;21.00;74.50;;;;;;4990290;28;20033;-67
2023/09/20 09:12:48;;;;;;;4.72;1.35;;;20.70;73.70;;;;;;4983190;28;20034;-68
2023/09/20 09:15:16;;;;;;;5.38;1.10;;;20.70;75.00;;;;;;4993045;28;20034;-67
2023/09/20 09:17:50;;;;;;;5.70;1.15;;;20.60;74.30;;;;;;4996355;28;20130;-67
2023/09/20 09:20:21;;;;;;;4.85;1.10;;;20.40;74.60;;;;;;5003559;28;20033;-67
2023/09/20 09:22:47;;;;;;;3.22;1.30;;;20.40;75.10;;;;;;4991679;28;20050;-68
2023/09/20 09:25:16;;;;;;;5.70;1.40;;;20.20;75.10;;;;;;5002876;28;20537;-67
2023/09/20 09:27:43;;;;;;;5.45;1.52;;;20.20;75.60;;;;;;4984355;28;20456;-67
2023/09/20 09:30:13;;;;;;;4.65;1.45;;;20.10;75.80;;;;;;4987089;28;20034;-66
2023/09/20 09:32:41;;;;;;;6.82;1.88;;;20.20;77.00;;;;;;4990405;28;20023;-67
2023/09/20 09:35:08;;;;;;;4.70;1.42;;;20.10;76.00;;;;;;4989301;28;20031;-67
2023/09/20 09:37:35;;;;;;;6.57;1.17;;;20.20;76.00;;;;;;4984666;28;20089;-68
2023/09/20 09:40:02;;;;;;;4.22;1.25;;;20.00;76.10;;;;;;4988275;28;20023;-67
2023/09/20 09:42:28;;;;;;;5.60;1.75;;;20.00;76.10;;;;;;4987764;28;20042;-67
2023/09/20 09:44:55;;;;;;;4.32;1.50;;;20.00;76.30;;;;;;4988033;28;20114;-67
2023/09/20 09:47:21;;;;;;;5.65;1.58;;;20.10;76.30;;;;;;4984437;28;20114;-67
2023/09/20 09:49:48;;;;;;;4.68;1.58;;;20.10;75.90;;;;;;4985711;28;20030;-66
2023/09/20 09:52:16;;;;;;;7.63;1.83;;;20.30;75.20;;;;;;4990528;28;20083;-68
2023/09/20 09:54:44;;;;;;;5.40;1.42;;;20.40;75.20;;;;;;4979888;28;20023;-67
2023/09/20 09:57:11;;;;;;;3.05;1.35;;;20.60;75.00;;;;;;4989430;28;20037;-71
2023/09/20 09:59:38;;;;;;;9.82;2.10;;;20.80;75.40;;;;;;4987089;28;20041;-67
2023/09/20 10:02:13;;;;;;;10.23;1.48;;;21.00;74.60;;;;;;4980718;28;20132;-68
2023/09/20 10:04:39;;;;;;;6.53;1.60;;;21.20;74.50;;;;;;4984328;28;20041;-67
2023/09/20 10:07:16;;;;;;;6.57;1.77;;;21.00;73.50;;;;;;4993178;28;20030;-68
2023/09/20 10:09:45;;;;;;;6.47;1.30;;;21.40;74.30;;;;;;4988161;28;20387;-67
2023/09/20 10:12:11;;;;;;;4.05;1.60;;;21.30;73.20;;;;;;4988043;28;20034;-67
2023/09/20 10:14:38;;;;;;;3.50;1.40;;;21.40;72.80;;;;;;4991037;28;20030;-67
2023/09/20 10:17:08;;;;;;;4.53;1.17;;;21.30;72.00;;;;;;4989783;28;20102;-67
2023/09/20 10:19:36;;;;;;;4.03;1.25;;;21.50;71.90;;;;;;4981985;28;20035;-67
2023/09/20 10:22:11;;;;;;;4.13;1.42;;;21.60;72.10;;;;;;4985976;28;20023;-67
2023/09/20 10:25:00;;;;;;;8.05;2.20;;;21.50;72.90;;;;;;4954726;28;989340;-67
2023/09/20 10:27:30;;;;;;;8.38;2.00;;;21.60;72.20;;;;;;4984453;28;20514;-67
2023/09/20 10:30:11;;;;;;;4.30;1.73;;;21.60;72.60;;;;;;4984194;28;20027;-67
2023/09/20 10:32:53;;;;;;;4.90;1.52;;;21.70;71.00;;;;;;4988154;28;20590;-67
2023/09/20 10:35:30;;;;;;;6.40;1.60;;;21.10;71.90;;;;;;4979999;28;20026;-67
2023/09/20 10:38:05;;;;;;;5.07;1.77;;;20.80;72.80;;;;;;4978266;28;20033;-67
2023/09/20 10:40:45;;;;;;;4.53;1.48;;;21.10;73.50;;;;;;4987689;28;20197;-67
2023/09/20 10:43:11;;;;;;;;;;;21.20;73.40;;;;;;4987569;28;20094;-68
2023/09/20 10:45:36;;;;;;;6.43;1.52;;;21.30;72.40;;;;;;4991694;28;20524;-67
2023/09/20 10:48:05;;;;;;;4.28;1.60;;;21.50;73.20;;;;;;4989253;28;20030;-68
2023/09/20 10:50:57;;;;;;;8.18;1.85;;;21.50;72.80;;;;;;4992185;28;20467;-68
2023/09/20 10:53:50;;;;;;;4.93;1.45;;;21.60;71.80;;;;;;4975448;28;20459;-68
2023/09/20 10:56:50;;;;;;;5.43;1.60;;;21.50;72.10;;;;;;4988668;28;20027;-68
2023/09/20 10:59:17;;;;;;;3.72;1.70;;;21.70;72.20;;;;;;4988102;28;20474;-67
2023/09/20 11:02:16;;;;;;;5.20;1.67;;;22.10;72.30;;;;;;4990685;28;20041;-67
2023/09/20 11:04:41;;;;;;;3.47;1.02;;;22.40;72.40;;;;;;4982142;28;20034;-68
2023/09/20 11:07:08;;;;;;;4.22;1.60;;;22.30;70.90;;;;;;4992748;28;20039;-68
2023/09/20 11:09:34;;;;;;;4.40;1.30;;;22.70;70.10;;;;;;4990679;28;20478;-68
2023/09/20 11:12:06;;;;;;;5.38;1.25;;;22.90;69.60;;;;;;4969502;28;20030;-68
2023/09/20 11:14:33;;;;;;;3.75;1.23;;;23.30;68.60;;;;;;4980720;28;20177;-67
2023/09/20 11:16:59;;;;;;;4.82;1.45;;;22.50;68.90;;;;;;4988337;28;20105;-67
2023/09/20 11:19:26;;;;;;;6.18;1.88;;;22.70;68.10;;;;;;4988304;28;20023;-68
2023/09/20 11:21:52;;;;;;;3.55;1.40;;;23.00;68.00;;;;;;4991288;28;20038;-67
2023/09/20 11:24:19;;;;;;;3.17;1.15;;;23.50;68.20;;;;;;4992060;28;20511;-68
2023/09/20 11:26:47;;;;;;;2.95;1.48;;;24.00;67.60;;;;;;4972697;28;20058;-68
2023/09/20 11:29:15;;;;;;;5.18;1.23;;;23.30;67.20;;;;;;4986717;28;20050;-68
2023/09/20 11:31:44;;;;;;;5.22;1.60;;;23.30;67.80;;;;;;4987676;28;20041;-67
2023/09/20 11:34:10;;;;;;;4.82;1.20;;;23.00;68.80;;;;;;4990421;28;20038;-67
2023/09/20 11:36:40;;;;;;;3.58;1.60;;;22.80;68.20;;;;;;4986632;28;20395;-68
2023/09/20 11:39:06;;;;;;;4.93;1.45;;;22.60;68.20;;;;;;4974265;28;20030;-68
2023/09/20 11:41:32;;;;;;;3.58;1.35;;;22.70;68.80;;;;;;4987857;28;20044;-68
2023/09/20 11:43:59;;;;;;;4.60;1.60;;;22.60;68.40;;;;;;4984983;28;20497;-69
2023/09/20 11:46:30;;;;;;;3.92;1.30;;;23.00;68.30;;;;;;4980388;28;20448;-68
2023/09/20 11:48:58;;;;;;;4.78;1.58;;;23.50;65.70;;;;;;4924113;28;20045;-68
2023/09/20 11:51:24;;;;;;;4.40;1.55;;;23.80;64.30;;;;;;4989362;28;20080;-68
2023/09/20 11:53:51;;;;;;;6.85;1.92;;;24.10;65.10;;;;;;4993861;28;20026;-67
2023/09/20 11:56:29;;;;;;;7.82;1.80;;;24.20;65.30;;;;;;4972047;28;20370;-68
2023/09/20 11:58:59;;;;;;;4.38;1.60;;;23.90;63.10;;;;;;4955011;28;20418;-68
2023/09/20 12:01:25;;;;;;;6.55;1.60;;;23.60;64.30;;;;;;4989312;28;20022;-68
2023/09/20 12:03:51;;;;;;;4.47;1.30;;;23.00;65.50;;;;;;4983389;28;20038;-67
2023/09/20 12:06:18;;;;;;;4.82;1.50;;;22.90;65.20;;;;;;4986963;28;20031;-68
2023/09/20 12:08:45;;;;;;;4.07;1.58;;;23.30;65.00;;;;;;4992970;28;20033;-67
2023/09/20 12:11:11;;;;;;;5.00;2.00;;;22.90;65.70;;;;;;4978385;28;20049;-70
2023/09/20 12:13:36;;;;;;;3.38;1.50;;;23.60;66.20;;;;;;4979138;28;20440;-67
2023/09/20 12:16:02;;;;;;;6.03;1.38;;;24.20;65.50;;;;;;4991523;28;20038;-68
2023/09/20 12:18:27;;;;;;;5.85;1.30;;;24.80;63.80;;;;;;4984495;28;20026;-69
2023/09/20 12:20:53;;;;;;;4.28;1.55;;;24.70;61.60;;;;;;4988587;28;20447;-68
2023/09/20 12:23:18;;;;;;;3.88;1.50;;;25.10;60.70;;;;;;4989650;28;20033;-69
2023/09/20 12:25:44;;;;;;;3.85;1.20;;;25.50;60.70;;;;;;4993110;28;20182;-67
2023/09/20 12:28:10;;;;;;;3.47;1.38;;;25.60;59.60;;;;;;4988783;28;20062;-68
2023/09/20 12:30:36;;;;;;;3.65;1.20;;;25.90;58.50;;;;;;4968032;28;20518;-68
2023/09/20 12:33:02;;;;;;;2.80;1.13;;;25.20;60.80;;;;;;4990083;28;20045;-68
2023/09/20 12:35:30;;;;;;;2.65;1.40;;;25.80;58.40;;;;;;4972711;28;20057;-68
2023/09/20 12:37:55;;;;;;;3.42;1.10;;;26.00;59.10;;;;;;4990390;28;20370;-68
2023/09/20 12:40:24;;;;;;;3.47;1.17;;;25.90;59.20;;;;;;4970910;28;20030;-68
2023/09/20 12:42:50;;;;;;;1.90;1.10;;;25.50;58.50;;;;;;4985323;28;20029;-68
2023/09/20 12:45:15;;;;;;;2.25;1.05;;;26.10;59.10;;;;;;4967213;28;20034;-68
2023/09/20 12:47:42;;;;;;;2.60;1.38;;;25.70;58.90;;;;;;4944166;28;20061;-69
2023/09/20 12:50:12;;;;;;;3.15;1.50;;;25.60;59.30;;;;;;4988970;28;20539;-68
2023/09/20 12:52:38;;;;;;;2.33;1.20;;;25.40;59.20;;;;;;4987016;28;20038;-68
2023/09/20 12:55:04;;;;;;;3.95;1.20;;;25.20;59.40;;;;;;4973032;28;20022;-68
2023/09/20 12:57:30;;;;;;;4.20;1.38;;;25.50;58.90;;;;;;4990745;28;20385;-69
2023/09/20 12:59:57;;;;;;;2.45;1.25;;;25.50;58.30;;;;;;4971881;28;20070;-67
2023/09/20 13:02:23;;;;;;;3.47;1.40;;;25.70;57.10;;;;;;4989110;28;20022;-68
2023/09/20 13:04:50;;;;;;;6.75;1.52;;;25.70;55.90;;;;;;4987300;28;20117;-68
2023/09/20 13:07:16;;;;;;;3.67;1.30;;;26.20;55.20;;;;;;4991917;28;20487;-68
2023/09/20 13:09:44;;;;;;;3.17;1.40;;;26.30;54.20;;;;;;4991198;28;20030;-68
2023/09/20 13:12:12;;;;;;;2.53;1.17;;;26.20;52.80;;;;;;4986972;28;20435;-68
2023/09/20 13:14:37;;;;;;;3.03;1.80;;;26.50;51.80;;;;;;4992518;28;20054;-69
2023/09/20 13:17:03;;;;;;;2.97;1.20;;;26.30;51.50;;;;;;4984703;28;20460;-69
2023/09/20 13:19:28;;;;;;;2.55;1.30;;;26.20;52.30;;;;;;4989043;28;20041;-69
2023/09/20 13:21:54;;;;;;;3.78;1.55;;;25.80;52.80;;;;;;4990457;28;20058;-68
2023/09/20 13:24:20;;;;;;;2.70;1.42;;;26.30;52.00;;;;;;4992287;28;20527;-68
2023/09/20 13:26:46;;;;;;;2.42;1.10;;;26.20;52.70;;;;;;4992359;28;20505;-68
2023/09/20 13:29:13;;;;;;;2.67;1.27;;;26.60;51.80;;;;;;4988352;28;20026;-69
2023/09/20 13:31:39;;;;;;;2.20;1.15;;;27.20;51.60;;;;;;4986506;28;20037;-68
2023/09/20 13:34:12;;;;;;;2.80;1.30;;;27.20;50.70;;;;;;4991927;28;20026;-68